createdAt,value
2023-05-01T00:00:37.969Z,99774.69
2023-05-01T00:03:04.901Z,99772.59
2023-05-01T00:05:32.043Z,99771.31
2023-05-01T00:07:58.911Z,99763.06
2023-05-01T00:10:25.622Z,99762.59
2023-05-01T00:12:52.474Z,99767.31
2023-05-01T00:15:19.298Z,99761.28
2023-05-01T00:17:46.089Z,99754.56
2023-05-01T00:20:13.071Z,99753.84
2023-05-01T00:22:40.053Z,99748.91
2023-05-01T00:25:07.532Z,99753.31
2023-05-01T00:27:34.253Z,99749.09
2023-05-01T00:30:01.003Z,99744.53
2023-05-01T00:32:28.322Z,99741.19
2023-05-01T00:34:56.865Z,99743.47
2023-05-01T00:37:24.501Z,99737.09
2023-05-01T00:39:51.437Z,99739.56
2023-05-01T00:42:18.333Z,99734.00
2023-05-01T00:44:45.142Z,99732.78
2023-05-01T00:47:12.096Z,99729.06
2023-05-01T00:49:38.882Z,99725.34
2023-05-01T00:52:05.836Z,99729.69
2023-05-01T00:54:32.668Z,99726.75
2023-05-01T00:57:00.037Z,99717.78
2023-05-01T00:59:26.788Z,99715.94
2023-05-01T01:01:56.196Z,99719.50
2023-05-01T01:04:23.376Z,99721.72
2023-05-01T01:07:04.184Z,99711.56
2023-05-01T01:09:45.825Z,99709.66
2023-05-01T01:12:32.603Z,99710.31
2023-05-01T01:15:25.228Z,99704.53
2023-05-01T01:17:57.577Z,99702.88
2023-05-01T01:21:07.044Z,99697.50
2023-05-01T01:24:12.856Z,99689.75
2023-05-01T01:26:49.490Z,99691.63
2023-05-01T01:29:35.356Z,99685.53
2023-05-01T01:32:23.910Z,99685.88
2023-05-01T01:35:03.494Z,99688.34
2023-05-01T01:37:43.493Z,99685.66
2023-05-01T01:40:26.224Z,99685.41
2023-05-01T01:42:59.842Z,99683.31
2023-05-01T01:45:34.634Z,99670.63
2023-05-01T01:48:03.513Z,99676.91
2023-05-01T01:50:32.369Z,99677.16
2023-05-01T01:53:02.546Z,99674.03
2023-05-01T01:55:31.618Z,99670.91
2023-05-01T01:57:59.976Z,99672.56
2023-05-01T02:00:29.332Z,99669.88
2023-05-01T02:02:58.829Z,99661.59
2023-05-01T02:05:27.463Z,99661.94
2023-05-01T02:07:55.902Z,99658.66
2023-05-01T02:10:23.788Z,99662.53
2023-05-01T02:12:53.569Z,99656.75
2023-05-01T02:15:21.716Z,99651.78
2023-05-01T02:17:50.863Z,99649.69
2023-05-01T02:20:18.689Z,99652.59
2023-05-01T02:22:46.747Z,99643.09
2023-05-01T02:25:15.204Z,99655.44
2023-05-01T02:27:47.729Z,99658.56
2023-05-01T02:30:14.730Z,99646.75
2023-05-01T02:32:41.881Z,99656.72
2023-05-01T02:35:08.928Z,99652.81
2023-05-01T02:37:35.687Z,99645.53
2023-05-01T02:40:03.362Z,99650.47
2023-05-01T02:42:30.286Z,99642.25
2023-05-01T02:45:05.967Z,99648.72
2023-05-01T02:47:35.806Z,99651.28
2023-05-01T02:50:04.059Z,99650.19
2023-05-01T02:52:31.880Z,99646.94
2023-05-01T02:54:58.950Z,99643.75
2023-05-01T02:57:26.207Z,99640.41
2023-05-01T02:59:52.933Z,99639.38
2023-05-01T03:02:19.956Z,99639.19
2023-05-01T03:04:46.793Z,99639.13
2023-05-01T03:07:14.029Z,99631.88
2023-05-01T03:09:40.989Z,99627.53
2023-05-01T03:12:07.879Z,99630.22
2023-05-01T03:14:35.206Z,99632.88
2023-05-01T03:17:02.197Z,99617.63
2023-05-01T03:19:28.981Z,99626.31
2023-05-01T03:21:55.906Z,99622.09
2023-05-01T03:24:22.670Z,99622.09
2023-05-01T03:26:49.417Z,99629.88
2023-05-01T03:29:16.157Z,99625.81
2023-05-01T03:31:42.981Z,99619.97
2023-05-01T03:34:09.718Z,99619.16
2023-05-01T03:36:36.675Z,99627.84
2023-05-01T03:39:05.070Z,99617.44
2023-05-01T03:41:31.907Z,99629.25
2023-05-01T03:43:58.635Z,99628.66
2023-05-01T03:46:25.381Z,99628.22
2023-05-01T03:48:52.140Z,99630.47
2023-05-01T03:51:18.876Z,99633.41
2023-05-01T03:53:45.638Z,99625.28
2023-05-01T03:56:12.462Z,99621.63
2023-05-01T03:58:39.246Z,99624.50
2023-05-01T04:01:06.276Z,99627.22
2023-05-01T04:03:33.091Z,99622.69
2023-05-01T04:06:00.000Z,99624.22
2023-05-01T04:08:27.027Z,99620.88
2023-05-01T04:10:53.923Z,99625.16
2023-05-01T04:13:20.677Z,99615.06
2023-05-01T04:15:47.655Z,99614.63
2023-05-01T04:18:14.647Z,99612.50
2023-05-01T04:20:41.475Z,99612.56
2023-05-01T04:23:09.774Z,99621.97
2023-05-01T04:25:37.295Z,99617.09
2023-05-01T04:28:04.572Z,99606.75
2023-05-01T04:30:32.128Z,99611.63
2023-05-01T04:32:59.041Z,99613.53
2023-05-01T04:35:25.985Z,99609.44
2023-05-01T04:37:52.959Z,99608.44
2023-05-01T04:40:19.720Z,99615.78
2023-05-01T04:42:46.469Z,99614.75
2023-05-01T04:45:13.373Z,99615.88
2023-05-01T04:47:40.280Z,99620.19
2023-05-01T04:50:07.448Z,99617.28
2023-05-01T04:52:34.339Z,99616.47
2023-05-01T04:55:01.086Z,99612.38
2023-05-01T04:57:27.891Z,99613.13
2023-05-01T04:59:54.786Z,99618.13
2023-05-01T05:02:21.757Z,99623.28
2023-05-01T05:04:48.829Z,99626.31
2023-05-01T05:07:16.137Z,99616.78
2023-05-01T05:09:42.915Z,99621.34
2023-05-01T05:12:09.647Z,99619.09
2023-05-01T05:14:36.584Z,99612.13
2023-05-01T05:17:03.709Z,99616.00
2023-05-01T05:19:30.592Z,99614.75
2023-05-01T05:21:57.431Z,99614.50
2023-05-01T05:24:24.209Z,99618.34
2023-05-01T05:26:50.955Z,99621.09
2023-05-01T05:29:17.799Z,99613.44
2023-05-01T05:31:44.636Z,99615.81
2023-05-01T05:34:11.692Z,99619.91
2023-05-01T05:36:38.676Z,99615.41
2023-05-01T05:39:05.443Z,99612.63
2023-05-01T05:41:32.250Z,99609.13
2023-05-01T05:43:58.999Z,99608.66
2023-05-01T05:46:25.731Z,99601.53
2023-05-01T05:48:52.633Z,99604.47
2023-05-01T05:51:19.736Z,99599.41
2023-05-01T05:53:46.508Z,99601.75
2023-05-01T05:56:13.337Z,99601.53
2023-05-01T05:58:40.126Z,99597.84
2023-05-01T06:01:07.369Z,99607.00
2023-05-01T06:03:34.277Z,99595.38
2023-05-01T06:06:01.601Z,99603.03
2023-05-01T06:08:31.262Z,99602.66
2023-05-01T06:10:59.225Z,99599.78
2023-05-01T06:13:26.061Z,99601.63
2023-05-01T06:15:53.513Z,99601.66
2023-05-01T06:18:20.482Z,99591.50
2023-05-01T06:20:48.112Z,99591.88
2023-05-01T06:23:15.786Z,99585.03
2023-05-01T06:25:43.007Z,99581.50
2023-05-01T06:28:09.880Z,99580.00
2023-05-01T06:30:36.655Z,99579.44
2023-05-01T06:33:03.552Z,99574.84
2023-05-01T06:35:30.459Z,99569.94
2023-05-01T06:37:57.377Z,99569.38
2023-05-01T06:40:24.136Z,99570.84
2023-05-01T06:42:51.128Z,99565.84
2023-05-01T06:45:17.937Z,99562.94
2023-05-01T06:47:44.786Z,99561.59
2023-05-01T06:50:11.703Z,99568.84
2023-05-01T06:52:38.481Z,99567.03
2023-05-01T06:55:05.564Z,99567.44
2023-05-01T06:57:32.357Z,99567.22
2023-05-01T06:59:59.446Z,99565.13
2023-05-01T07:02:26.962Z,99567.63
2023-05-01T07:04:53.942Z,99559.03
2023-05-01T07:07:20.785Z,99565.69
2023-05-01T07:09:47.538Z,99563.00
2023-05-01T07:12:14.447Z,99559.66
2023-05-01T07:14:41.908Z,99559.13
2023-05-01T07:17:09.633Z,99558.38
2023-05-01T07:19:36.458Z,99553.69
2023-05-01T07:22:04.989Z,99553.47
2023-05-01T07:24:31.924Z,99540.97
2023-05-01T07:26:58.781Z,99539.13
2023-05-01T07:29:25.646Z,99537.03
2023-05-01T07:31:52.372Z,99527.50
2023-05-01T07:34:19.873Z,99525.91
2023-05-01T07:36:47.077Z,99524.81
2023-05-01T07:39:15.049Z,99529.66
2023-05-01T07:41:41.873Z,99530.94
2023-05-01T07:44:08.626Z,99525.53
2023-05-01T07:46:37.202Z,99519.84
2023-05-01T07:49:04.509Z,99524.53
2023-05-01T07:51:31.740Z,99517.88
2023-05-01T07:53:59.267Z,99524.53
2023-05-01T07:56:26.029Z,99525.00
2023-05-01T07:58:52.760Z,99531.97
2023-05-01T08:01:19.541Z,99525.16
2023-05-01T08:03:48.008Z,99524.94
2023-05-01T08:06:16.492Z,99519.34
2023-05-01T08:08:43.422Z,99519.59
2023-05-01T08:11:10.370Z,99513.09
2023-05-01T08:13:37.118Z,99513.13
2023-05-01T08:16:04.496Z,99511.34
2023-05-01T08:18:31.667Z,99509.09
2023-05-01T08:20:58.455Z,99506.38
2023-05-01T08:23:25.584Z,99509.19
2023-05-01T08:25:52.970Z,99507.41
2023-05-01T08:28:23.514Z,99507.78
2023-05-01T08:30:50.687Z,99514.19
2023-05-01T08:33:17.975Z,99507.44
2023-05-01T08:35:44.806Z,99508.03
2023-05-01T08:38:12.257Z,99508.19
2023-05-01T08:40:41.271Z,99505.31
2023-05-01T08:43:08.500Z,99509.66
2023-05-01T08:45:38.477Z,99508.50
2023-05-01T08:48:10.526Z,99508.84
2023-05-01T08:50:39.746Z,99517.41
2023-05-01T08:53:07.237Z,99519.25
2023-05-01T08:55:35.456Z,99518.00
2023-05-01T08:58:04.270Z,99507.69
2023-05-01T09:00:34.451Z,99508.50
2023-05-01T09:03:04.925Z,99512.50
2023-05-01T09:05:33.407Z,99509.44
2023-05-01T09:08:00.934Z,99509.84
2023-05-01T09:10:28.070Z,99508.06
2023-05-01T09:12:58.587Z,99511.34
2023-05-01T09:15:29.474Z,99504.41
2023-05-01T09:17:57.368Z,99515.94
2023-05-01T09:20:24.761Z,99507.94
2023-05-01T09:22:52.077Z,99513.59
2023-05-01T09:25:19.662Z,99504.28
2023-05-01T09:27:46.431Z,99503.59
2023-05-01T09:30:32.987Z,99506.53
2023-05-01T09:33:11.455Z,99506.16
2023-05-01T09:35:55.335Z,99503.34
2023-05-01T09:38:24.856Z,99501.22
2023-05-01T09:40:54.331Z,99509.34
2023-05-01T09:43:28.638Z,99496.50
2023-05-01T09:46:09.703Z,99496.88
2023-05-01T09:48:38.157Z,99493.13
2023-05-01T09:51:29.149Z,99495.59
2023-05-01T09:54:01.913Z,99496.84
2023-05-01T09:56:34.347Z,99494.63
2023-05-01T09:59:22.976Z,99497.16
2023-05-01T10:01:50.876Z,99494.25
2023-05-01T10:04:18.366Z,99492.50
2023-05-01T10:06:45.345Z,99505.47
2023-05-01T10:09:17.750Z,99500.00
2023-05-01T10:11:49.727Z,99498.47
2023-05-01T10:14:16.653Z,99494.22
2023-05-01T10:16:45.471Z,99496.19
2023-05-01T10:19:13.440Z,99504.13
2023-05-01T10:21:40.897Z,99506.84
2023-05-01T10:24:10.065Z,99511.16
2023-05-01T10:26:37.825Z,99499.63
2023-05-01T10:29:05.069Z,99498.38
2023-05-01T10:31:33.382Z,99498.56
2023-05-01T10:34:03.708Z,99500.81
2023-05-01T10:36:43.179Z,99505.91
2023-05-01T10:39:32.572Z,99504.97
2023-05-01T10:41:59.311Z,99502.19
2023-05-01T10:44:27.449Z,99508.97
2023-05-01T10:46:55.367Z,99509.75
2023-05-01T10:49:23.012Z,99506.88
2023-05-01T10:52:01.331Z,99501.94
2023-05-01T10:54:33.343Z,99503.75
2023-05-01T10:57:02.190Z,99497.28
2023-05-01T11:00:00.880Z,99497.53
2023-05-01T11:02:27.885Z,99501.56
2023-05-01T11:04:56.662Z,99497.31
2023-05-01T11:07:24.257Z,99497.31
2023-05-01T11:09:55.762Z,99510.38
2023-05-01T11:12:49.110Z,99506.16
2023-05-01T11:15:30.554Z,99499.69
2023-05-01T11:17:58.114Z,99505.00
2023-05-01T11:20:24.883Z,99500.06
2023-05-01T11:22:58.116Z,99495.25
2023-05-01T11:25:30.848Z,99493.22
2023-05-01T11:28:02.904Z,99490.06
2023-05-01T11:30:42.508Z,99495.09
2023-05-01T11:33:10.845Z,99490.97
2023-05-01T11:35:39.028Z,99493.59
2023-05-01T11:38:05.879Z,99494.97
2023-05-01T11:40:35.186Z,99498.41
2023-05-01T11:43:07.468Z,99498.53
2023-05-01T11:45:36.132Z,99505.22
2023-05-01T11:48:04.937Z,99507.28
2023-05-01T11:50:35.837Z,99501.81
2023-05-01T11:53:04.109Z,99508.75
2023-05-01T11:55:32.402Z,99498.66
2023-05-01T11:57:59.713Z,99498.53
2023-05-01T12:00:36.997Z,99498.75
2023-05-01T12:03:09.540Z,99495.69
2023-05-01T12:05:42.527Z,99496.88
2023-05-01T12:08:20.908Z,99506.78
2023-05-01T12:10:58.037Z,99504.25
2023-05-01T12:13:25.496Z,99494.75
2023-05-01T12:15:54.708Z,99499.00
2023-05-01T12:18:22.288Z,99498.38
2023-05-01T12:20:54.592Z,99493.19
2023-05-01T12:23:32.621Z,99496.72
2023-05-01T12:26:03.413Z,99492.50
2023-05-01T12:28:31.728Z,99490.44
2023-05-01T12:31:04.912Z,99489.56
2023-05-01T12:33:32.373Z,99489.41
2023-05-01T12:36:10.090Z,99484.88
2023-05-01T12:38:37.183Z,99496.50
2023-05-01T12:41:07.450Z,99489.97
2023-05-01T12:43:38.510Z,99489.94
2023-05-01T12:46:06.282Z,99490.84
2023-05-01T12:48:35.898Z,99486.13
2023-05-01T12:51:02.819Z,99494.84
2023-05-01T12:53:30.137Z,99488.22
2023-05-01T12:55:58.724Z,99490.78
2023-05-01T12:58:38.378Z,99489.28
2023-05-01T13:01:05.579Z,99481.72
2023-05-01T13:03:34.004Z,99483.38
2023-05-01T13:06:02.714Z,99480.81
2023-05-01T13:08:34.360Z,99476.03
2023-05-01T13:11:09.450Z,99470.84
2023-05-01T13:13:37.890Z,99471.41
2023-05-01T13:16:17.669Z,99470.16
2023-05-01T13:18:45.570Z,99467.72
2023-05-01T13:21:16.005Z,99470.09
2023-05-01T13:23:53.485Z,99458.00
2023-05-01T13:26:27.361Z,99452.09
2023-05-01T13:28:54.562Z,99458.13
2023-05-01T13:31:21.516Z,99457.56
2023-05-01T13:33:52.225Z,99451.63
2023-05-01T13:36:25.855Z,99458.03
2023-05-01T13:38:56.845Z,99460.75
2023-05-01T13:41:26.628Z,99459.97
2023-05-01T13:43:55.486Z,99454.91
2023-05-01T13:46:24.205Z,99462.38
2023-05-01T13:48:51.293Z,99460.34
2023-05-01T13:51:25.250Z,99457.88
2023-05-01T13:53:54.153Z,99465.75
2023-05-01T13:56:22.237Z,99464.22
2023-05-01T13:58:50.547Z,99463.03
2023-05-01T14:01:21.135Z,99463.53
2023-05-01T14:03:49.432Z,99461.16
2023-05-01T14:06:18.702Z,99462.56
2023-05-01T14:08:47.402Z,99468.94
2023-05-01T14:11:15.110Z,99458.97
2023-05-01T14:13:47.898Z,99453.50
2023-05-01T14:16:26.576Z,99463.41
2023-05-01T14:18:57.806Z,99459.59
2023-05-01T14:21:30.313Z,99460.59
2023-05-01T14:23:57.476Z,99461.75
2023-05-01T14:26:25.007Z,99459.22
2023-05-01T14:28:52.522Z,99460.31
2023-05-01T14:31:27.731Z,99457.69
2023-05-01T14:33:57.989Z,99455.69
2023-05-01T14:36:25.360Z,99454.88
2023-05-01T14:38:53.399Z,99456.97
2023-05-01T14:41:21.274Z,99456.88
2023-05-01T14:43:51.516Z,99450.69
2023-05-01T14:46:42.769Z,99452.66
2023-05-01T14:49:17.650Z,99450.44
2023-05-01T14:51:44.453Z,99435.91
2023-05-01T14:54:11.784Z,99443.97
2023-05-01T14:56:38.731Z,99440.00
2023-05-01T14:59:05.516Z,99448.56
2023-05-01T15:01:32.583Z,99443.66
2023-05-01T15:04:01.944Z,99431.06
2023-05-01T15:06:30.455Z,99440.88
2023-05-01T15:08:57.224Z,99440.66
2023-05-01T15:11:24.049Z,99435.72
2023-05-01T15:13:50.989Z,99438.97
2023-05-01T15:16:17.849Z,99434.63
2023-05-01T15:18:44.765Z,99430.13
2023-05-01T15:21:11.642Z,99427.47
2023-05-01T15:23:45.317Z,99422.59
2023-05-01T15:26:12.318Z,99419.78
2023-05-01T15:28:39.145Z,99420.16
2023-05-01T15:31:06.244Z,99412.59
2023-05-01T15:33:33.198Z,99419.88
2023-05-01T15:36:00.188Z,99409.97
2023-05-01T15:38:28.507Z,99407.22
2023-05-01T15:40:55.378Z,99414.38
2023-05-01T15:43:23.623Z,99414.41
2023-05-01T15:45:51.581Z,99404.81
2023-05-01T15:48:18.694Z,99410.56
2023-05-01T15:50:47.416Z,99403.47
2023-05-01T15:53:17.332Z,99400.22
2023-05-01T15:55:44.215Z,99402.38
2023-05-01T15:58:11.277Z,99409.50
2023-05-01T16:00:39.961Z,99407.75
2023-05-01T16:03:08.162Z,99404.81
2023-05-01T16:05:37.781Z,99407.88
2023-05-01T16:08:06.511Z,99407.03
2023-05-01T16:10:37.404Z,99412.06
2023-05-01T16:13:08.124Z,99418.78
2023-05-01T16:15:36.621Z,99413.28
2023-05-01T16:18:06.963Z,99403.88
2023-05-01T16:20:43.131Z,99405.59
2023-05-01T16:23:10.008Z,99400.31
2023-05-01T16:25:36.825Z,99413.72
2023-05-01T16:28:06.355Z,99404.84
2023-05-01T16:30:33.308Z,99406.91
2023-05-01T16:33:03.328Z,99414.47
2023-05-01T16:35:30.180Z,99411.13
2023-05-01T16:37:59.611Z,99399.34
2023-05-01T16:40:26.449Z,99410.53
2023-05-01T16:42:54.785Z,99402.63
2023-05-01T16:45:22.147Z,99404.09
2023-05-01T16:47:49.172Z,99405.75
2023-05-01T16:50:17.314Z,99416.84
2023-05-01T16:52:44.161Z,99411.19
2023-05-01T16:55:11.081Z,99408.47
2023-05-01T16:57:37.908Z,99407.81
2023-05-01T17:00:05.670Z,99405.69
2023-05-01T17:02:34.160Z,99416.16
2023-05-01T17:05:02.196Z,99422.34
2023-05-01T17:07:28.957Z,99424.28
2023-05-01T17:09:55.755Z,99426.25
2023-05-01T17:12:22.502Z,99424.34
2023-05-01T17:14:49.344Z,99420.53
2023-05-01T17:17:18.053Z,99421.50
2023-05-01T17:19:45.025Z,99417.53
2023-05-01T17:22:11.916Z,99417.75
2023-05-01T17:24:38.712Z,99423.75
2023-05-01T17:27:05.960Z,99418.25
2023-05-01T17:29:32.809Z,99412.84
2023-05-01T17:31:59.667Z,99422.41
2023-05-01T17:34:26.651Z,99423.16
2023-05-01T17:36:54.732Z,99429.53
2023-05-01T17:39:22.798Z,99428.00
2023-05-01T17:41:49.897Z,99423.00
2023-05-01T17:44:16.662Z,99430.25
2023-05-01T17:46:43.408Z,99439.63
2023-05-01T17:49:10.125Z,99439.56
2023-05-01T17:51:37.588Z,99440.63
2023-05-01T17:54:04.325Z,99455.56
2023-05-01T17:56:31.031Z,99449.63
2023-05-01T17:58:57.883Z,99444.06
2023-05-01T18:01:24.848Z,99449.88
2023-05-01T18:03:51.798Z,99448.66
2023-05-01T18:06:18.681Z,99450.28
2023-05-01T18:08:45.835Z,99448.75
2023-05-01T18:11:12.550Z,99453.03
2023-05-01T18:13:40.104Z,99456.56
2023-05-01T18:16:07.009Z,99461.78
2023-05-01T18:18:33.819Z,99469.66
2023-05-01T18:21:00.546Z,99470.75
2023-05-01T18:23:27.544Z,99462.63
2023-05-01T18:25:55.321Z,99468.16
2023-05-01T18:28:22.412Z,99471.03
2023-05-01T18:30:49.470Z,99471.88
2023-05-01T18:33:16.318Z,99488.41
2023-05-01T18:35:43.352Z,99491.22
2023-05-01T18:38:10.919Z,99497.00
2023-05-01T18:40:38.202Z,99490.41
2023-05-01T18:43:05.124Z,99495.69
2023-05-01T18:45:31.943Z,99496.50
2023-05-01T18:48:00.885Z,99487.81
2023-05-01T18:50:27.888Z,99492.63
2023-05-01T18:52:54.812Z,99499.09
2023-05-01T18:55:21.600Z,99507.28
2023-05-01T18:57:48.980Z,99514.53
2023-05-01T19:00:17.647Z,99517.38
2023-05-01T19:02:51.579Z,99524.16
2023-05-01T19:05:19.208Z,99524.56
2023-05-01T19:07:48.021Z,99526.56
2023-05-01T19:10:15.573Z,99530.03
2023-05-01T19:12:42.817Z,99521.78
2023-05-01T19:15:10.375Z,99526.56
2023-05-01T19:17:37.982Z,99527.75
2023-05-01T19:20:05.758Z,99524.09
2023-05-01T19:22:32.728Z,99534.78
2023-05-01T19:25:00.480Z,99525.97
2023-05-01T19:27:27.323Z,99538.88
2023-05-01T19:29:54.827Z,99544.09
2023-05-01T19:32:23.366Z,99540.81
2023-05-01T19:34:50.250Z,99542.75
2023-05-01T19:37:17.483Z,99538.25
2023-05-01T19:39:44.352Z,99549.63
2023-05-01T19:42:11.962Z,99549.63
2023-05-01T19:44:38.838Z,99556.41
2023-05-01T19:47:05.631Z,99548.59
2023-05-01T19:49:32.365Z,99548.81
2023-05-01T19:51:59.610Z,99557.41
2023-05-01T19:54:26.575Z,99549.63
2023-05-01T19:56:53.413Z,99558.22
2023-05-01T19:59:20.135Z,99566.13
2023-05-01T20:01:47.296Z,99571.25
2023-05-01T20:04:14.252Z,99574.50
2023-05-01T20:06:41.179Z,99573.28
2023-05-01T20:09:08.045Z,99579.56
2023-05-01T20:11:36.025Z,99590.28
2023-05-01T20:14:04.249Z,99590.69
2023-05-01T20:16:31.278Z,99588.88
2023-05-01T20:18:58.125Z,99590.53
2023-05-01T20:21:24.946Z,99597.66
2023-05-01T20:23:51.807Z,99592.47
2023-05-01T20:26:19.180Z,99596.41
2023-05-01T20:28:46.170Z,99591.56
2023-05-01T20:31:13.793Z,99593.22
2023-05-01T20:33:40.682Z,99596.75
2023-05-01T20:36:07.629Z,99589.38
2023-05-01T20:38:46.565Z,99593.34
2023-05-01T20:41:14.190Z,99602.25
2023-05-01T20:43:41.122Z,99595.41
2023-05-01T20:46:07.956Z,99598.22
2023-05-01T20:48:34.937Z,99598.50
2023-05-01T20:51:01.688Z,99606.09
2023-05-01T20:53:28.516Z,99607.00
2023-05-01T20:55:55.330Z,99602.44
2023-05-01T20:58:22.144Z,99599.53
2023-05-01T21:00:48.915Z,99601.03
2023-05-01T21:03:16.485Z,99598.34
2023-05-01T21:05:43.460Z,99599.41
2023-05-01T21:08:10.202Z,99594.47
2023-05-01T21:10:37.252Z,99596.50
2023-05-01T21:13:04.260Z,99602.53
2023-05-01T21:15:32.273Z,99603.53
2023-05-01T21:17:59.128Z,99603.59
2023-05-01T21:20:35.364Z,99608.09
2023-05-01T21:23:02.809Z,99604.63
2023-05-01T21:25:32.120Z,99615.19
2023-05-01T21:28:02.353Z,99610.47
2023-05-01T21:30:36.814Z,99613.34
2023-05-01T21:33:06.691Z,99612.75
2023-05-01T21:35:34.126Z,99617.72
2023-05-01T21:38:01.332Z,99616.09
2023-05-01T21:40:28.205Z,99610.25
2023-05-01T21:42:55.396Z,99616.09
2023-05-01T21:45:22.905Z,99614.44
2023-05-01T21:47:51.254Z,99620.66
2023-05-01T21:50:20.249Z,99618.97
2023-05-01T21:52:48.694Z,99623.38
2023-05-01T21:55:21.110Z,99618.59
2023-05-01T21:57:50.012Z,99624.38
2023-05-01T22:00:18.316Z,99617.16
2023-05-01T22:02:46.927Z,99631.00
2023-05-01T22:05:15.612Z,99627.72
2023-05-01T22:07:43.969Z,99633.06
2023-05-01T22:10:15.981Z,99622.34
2023-05-01T22:12:43.971Z,99625.25
2023-05-01T22:15:12.554Z,99622.75
2023-05-01T22:17:40.430Z,99632.28
2023-05-01T22:20:08.225Z,99634.56
2023-05-01T22:22:35.524Z,99627.31
2023-05-01T22:25:03.022Z,99629.41
2023-05-01T22:27:30.108Z,99633.50
2023-05-01T22:29:57.300Z,99634.78
2023-05-01T22:32:24.397Z,99641.19
2023-05-01T22:34:51.170Z,99646.56
2023-05-01T22:37:19.190Z,99645.53
2023-05-01T22:39:46.006Z,99643.03
2023-05-01T22:42:12.970Z,99640.13
2023-05-01T22:44:39.772Z,99640.56
2023-05-01T22:47:06.578Z,99638.69
2023-05-01T22:49:33.624Z,99640.56
2023-05-01T22:52:00.526Z,99646.75
2023-05-01T22:54:27.298Z,99642.63
2023-05-01T22:56:54.189Z,99644.91
2023-05-01T22:59:21.968Z,99648.41
2023-05-01T23:01:48.987Z,99649.84
2023-05-01T23:04:16.094Z,99651.69
2023-05-01T23:06:43.521Z,99661.63
2023-05-01T23:09:10.467Z,99660.38
2023-05-01T23:11:37.591Z,99650.84
2023-05-01T23:14:04.385Z,99654.53
2023-05-01T23:16:40.014Z,99663.66
2023-05-01T23:19:08.015Z,99664.81
2023-05-01T23:21:34.787Z,99659.03
2023-05-01T23:24:01.626Z,99660.31
2023-05-01T23:26:29.555Z,99664.38
2023-05-01T23:28:56.309Z,99664.78
2023-05-01T23:31:27.670Z,99664.78
2023-05-01T23:33:55.558Z,99659.34
2023-05-01T23:36:23.215Z,99665.53
2023-05-01T23:38:49.982Z,99666.09
2023-05-01T23:41:17.006Z,99655.22
2023-05-01T23:43:46.867Z,99651.16
2023-05-01T23:46:14.302Z,99654.19
2023-05-01T23:48:41.560Z,99655.63
2023-05-01T23:51:08.611Z,99656.22
2023-05-01T23:53:35.485Z,99655.19
2023-05-01T23:56:02.448Z,99651.47
2023-05-01T23:58:29.377Z,99646.09
